Time,TemperatureF,DewpointF,PressureIn,WindDirection,WindDirectionDegrees,WindSpeedMPH,WindSpeedGustMPH,Humidity,HourlyPrecipIn,Conditions,Clouds,dailyrainin,SoftwareType,DateUTC
2017-01-18 00:06:00,46.9,45.3,30.11,East,101,0.0,0.0,94,0.02,,---,0.02,VWS V14.01,2017-01-18 06:06:00,
2017-01-18 00:11:00,46.9,45.3,30.11,East,101,0.0,0.0,94,0.03,,---,0.03,VWS V14.01,2017-01-18 06:11:00,
2017-01-18 00:16:00,46.8,45.2,30.11,East,101,0.0,0.0,94,0.04,,---,0.04,VWS V14.01,2017-01-18 06:16:00,
2017-01-18 00:21:00,46.8,45.2,30.11,East,101,0.0,0.0,94,0.04,,---,0.04,VWS V14.01,2017-01-18 06:21:00,
2017-01-18 00:26:00,46.7,45.1,30.10,East,101,0.0,0.0,94,0.05,,---,0.05,VWS V14.01,2017-01-18 06:26:00,
2017-01-18 00:36:00,46.7,45.3,30.11,East,101,0.0,0.0,95,0.07,,---,0.07,VWS V14.01,2017-01-18 06:36:00,
2017-01-18 00:41:00,46.7,45.3,30.12,East,101,0.0,0.0,95,0.10,,---,0.10,VWS V14.01,2017-01-18 06:41:00,
2017-01-18 00:46:00,46.7,45.3,30.13,East,101,0.0,0.0,95,0.12,,---,0.12,VWS V14.01,2017-01-18 06:46:00,
2017-01-18 00:51:00,46.7,45.3,30.13,East,101,0.0,0.0,95,0.20,,---,0.20,VWS V14.01,2017-01-18 06:51:00,
2017-01-18 00:56:00,46.7,45.3,30.13,North,9,0.0,2.0,95,0.28,,---,0.28,VWS V14.01,2017-01-18 06:56:00,
2017-01-18 01:01:00,46.6,45.2,30.13,North,9,0.0,0.0,95,0.30,,---,0.30,VWS V14.01,2017-01-18 07:01:00,
2017-01-18 01:06:00,46.7,45.6,30.12,North,5,0.0,4.0,96,0.30,,---,0.31,VWS V14.01,2017-01-18 07:06:00,
2017-01-18 01:11:00,46.6,45.5,30.12,North,5,0.0,0.0,96,0.29,,---,0.31,VWS V14.01,2017-01-18 07:11:00,
2017-01-18 01:16:00,46.7,45.6,30.12,North,5,0.0,0.0,96,0.28,,---,0.31,VWS V14.01,2017-01-18 07:16:00,
2017-01-18 01:21:00,46.7,45.6,30.11,NNE,12,0.0,2.0,96,0.28,,---,0.32,VWS V14.01,2017-01-18 07:21:00,
2017-01-18 01:31:00,46.8,45.7,30.12,North,11,0.0,0.0,96,0.27,,---,0.32,VWS V14.01,2017-01-18 07:31:00,
2017-01-18 01:41:00,46.9,45.8,30.12,North,9,0.0,1.0,96,0.25,,---,0.32,VWS V14.01,2017-01-18 07:41:00,
2017-01-18 01:46:00,46.9,45.8,30.14,West,265,0.0,4.0,96,0.22,,---,0.32,VWS V14.01,2017-01-18 07:46:00,
2017-01-18 01:51:00,47.0,45.9,30.14,WSW,249,0.0,6.0,96,0.21,,---,0.33,VWS V14.01,2017-01-18 07:51:00,
2017-01-18 01:56:00,46.9,45.8,30.13,NW,323,0.0,4.0,96,0.15,,---,0.35,VWS V14.01,2017-01-18 07:56:00,
2017-01-18 02:01:00,46.9,45.8,30.11,NW,323,0.0,6.0,96,0.08,,---,0.36,VWS V14.01,2017-01-18 08:01:00,
2017-01-18 02:06:00,46.8,45.7,30.12,NNW,335,0.0,5.0,96,0.07,,---,0.37,VWS V14.01,2017-01-18 08:06:00,
2017-01-18 02:16:00,46.7,45.6,30.13,NW,309,0.0,3.0,96,0.06,,---,0.37,VWS V14.01,2017-01-18 08:16:00,
2017-01-18 02:21:00,46.7,45.6,30.12,NW,311,0.0,1.0,96,0.06,,---,0.37,VWS V14.01,2017-01-18 08:21:00,
2017-01-18 02:26:00,46.6,45.5,30.13,NW,324,0.0,1.0,96,0.05,,---,0.37,VWS V14.01,2017-01-18 08:26:00,
2017-01-18 02:31:00,46.6,45.5,30.13,NW,321,0.0,0.0,96,0.05,,---,0.37,VWS V14.01,2017-01-18 08:31:00,
2017-01-18 02:36:00,46.6,45.5,30.12,NW,325,0.0,2.0,96,0.05,,---,0.37,VWS V14.01,2017-01-18 08:36:00,
2017-01-18 02:41:00,46.5,45.7,30.12,NW,324,0.0,0.0,97,0.05,,---,0.37,VWS V14.01,2017-01-18 08:41:00,
2017-01-18 02:46:00,46.5,45.7,30.12,NW,324,0.0,0.0,97,0.05,,---,0.37,VWS V14.01,2017-01-18 08:46:00,
2017-01-18 02:56:00,46.5,45.7,30.12,NW,324,0.0,0.0,97,0.04,,---,0.37,VWS V14.01,2017-01-18 08:56:00,
2017-01-18 03:01:00,46.5,45.7,30.12,NW,324,0.0,0.0,97,0.02,,---,0.37,VWS V14.01,2017-01-18 09:01:00,
2017-01-18 03:11:00,46.5,45.7,30.11,NW,323,0.0,0.0,97,0.00,,---,0.37,VWS V14.01,2017-01-18 09:11:00,
2017-01-18 03:16:00,46.5,45.7,30.11,NW,323,0.0,0.0,97,0.00,,---,0.37,VWS V14.01,2017-01-18 09:16:00,
2017-01-18 03:21:00,46.5,45.7,30.11,NW,323,0.0,0.0,97,0.00,,---,0.37,VWS V14.01,2017-01-18 09:21:00,
2017-01-18 03:26:00,46.5,45.7,30.10,NW,323,0.0,0.0,97,0.00,,---,0.37,VWS V14.01,2017-01-18 09:26:00,
2017-01-18 03:31:00,46.5,45.7,30.10,NW,323,0.0,0.0,97,0.00,,---,0.37,VWS V14.01,2017-01-18 09:31:00,
2017-01-18 03:36:00,46.5,45.7,30.11,NW,323,0.0,0.0,97,0.00,,---,0.37,VWS V14.01,2017-01-18 09:36:00,
2017-01-18 03:41:00,46.5,45.7,30.10,NW,323,0.0,0.0,97,0.00,,---,0.37,VWS V14.01,2017-01-18 09:41:00,
2017-01-18 03:46:00,46.4,45.6,30.10,NW,323,0.0,0.0,97,0.00,,---,0.37,VWS V14.01,2017-01-18 09:46:00,
2017-01-18 03:51:00,46.5,45.7,30.10,NW,323,0.0,0.0,97,0.00,,---,0.37,VWS V14.01,2017-01-18 09:51:00,
2017-01-18 03:56:00,46.5,45.7,30.10,NW,323,0.0,0.0,97,0.00,,---,0.37,VWS V14.01,2017-01-18 09:56:00,
2017-01-18 04:01:00,46.5,45.7,30.09,NW,323,0.0,0.0,97,0.00,,---,0.37,VWS V14.01,2017-01-18 10:01:00,
2017-01-18 04:06:00,46.5,45.7,30.09,NW,323,0.0,0.0,97,0.00,,---,0.37,VWS V14.01,2017-01-18 10:06:00,
2017-01-18 04:11:00,46.5,45.7,30.09,NW,323,0.0,0.0,97,0.00,,---,0.37,VWS V14.01,2017-01-18 10:11:00,
2017-01-18 04:16:00,46.5,45.7,30.10,NW,323,0.0,0.0,97,0.00,,---,0.37,VWS V14.01,2017-01-18 10:16:00,
2017-01-18 04:21:00,46.5,45.7,30.10,NW,323,0.0,0.0,97,0.00,,---,0.37,VWS V14.01,2017-01-18 10:21:00,
2017-01-18 04:26:00,46.5,45.7,30.10,NW,323,0.0,0.0,97,0.00,,---,0.37,VWS V14.01,2017-01-18 10:26:00,
2017-01-18 04:31:00,46.5,45.7,30.09,NW,323,0.0,0.0,97,0.00,,---,0.37,VWS V14.01,2017-01-18 10:31:00,
2017-01-18 04:36:00,46.6,45.8,30.10,NW,323,0.0,0.0,97,0.00,,---,0.37,VWS V14.01,2017-01-18 10:36:00,
2017-01-18 04:41:00,46.5,45.7,30.10,NW,323,0.0,0.0,97,0.00,,---,0.37,VWS V14.01,2017-01-18 10:41:00,
2017-01-18 04:46:00,46.5,45.7,30.10,NW,323,0.0,1.0,97,0.00,,---,0.37,VWS V14.01,2017-01-18 10:46:00,
2017-01-18 04:51:00,46.6,45.8,30.10,NW,323,0.0,0.0,97,0.00,,---,0.37,VWS V14.01,2017-01-18 10:51:00,
2017-01-18 04:56:00,46.6,45.8,30.10,NW,323,0.0,0.0,97,0.00,,---,0.37,VWS V14.01,2017-01-18 10:56:00,
2017-01-18 05:06:00,46.6,45.8,30.10,NW,323,0.0,0.0,97,0.00,,---,0.37,VWS V14.01,2017-01-18 11:06:00,
2017-01-18 05:11:00,46.6,45.8,30.09,NNW,329,0.0,1.0,97,0.00,,---,0.37,VWS V14.01,2017-01-18 11:11:00,
2017-01-18 05:16:00,46.5,45.7,30.09,NE,53,0.0,4.0,97,0.00,,---,0.37,VWS V14.01,2017-01-18 11:16:00,
2017-01-18 05:26:00,46.5,45.7,30.10,NE,53,0.0,0.0,97,0.00,,---,0.37,VWS V14.01,2017-01-18 11:26:00,
2017-01-18 05:31:00,46.5,45.7,30.10,NE,53,0.0,0.0,97,0.00,,---,0.37,VWS V14.01,2017-01-18 11:31:00,
2017-01-18 05:36:00,46.5,45.7,30.09,NE,53,0.0,0.0,97,0.00,,---,0.37,VWS V14.01,2017-01-18 11:36:00,
2017-01-18 05:41:00,46.5,45.7,30.09,NE,53,0.0,0.0,97,0.00,,---,0.37,VWS V14.01,2017-01-18 11:41:00,
2017-01-18 05:46:00,46.6,45.8,30.10,NE,53,0.0,0.0,97,0.00,,---,0.37,VWS V14.01,2017-01-18 11:46:00,
2017-01-18 05:56:00,46.5,45.7,30.10,NW,316,0.0,5.0,97,0.00,,---,0.37,VWS V14.01,2017-01-18 11:56:00,
2017-01-18 06:06:00,46.5,45.7,30.10,NW,319,0.0,4.0,97,0.00,,---,0.37,VWS V14.01,2017-01-18 12:06:00,
2017-01-18 06:11:00,46.5,45.7,30.09,NW,319,0.0,0.0,97,0.00,,---,0.37,VWS V14.01,2017-01-18 12:11:00,
2017-01-18 06:21:00,46.5,45.7,30.10,NW,326,0.0,1.0,97,0.00,,---,0.37,VWS V14.01,2017-01-18 12:21:00,
2017-01-18 06:26:00,46.6,45.8,30.10,NW,326,0.0,0.0,97,0.00,,---,0.37,VWS V14.01,2017-01-18 12:26:00,
2017-01-18 06:31:00,46.6,45.8,30.11,NW,326,0.0,0.0,97,0.00,,---,0.37,VWS V14.01,2017-01-18 12:31:00,
2017-01-18 06:41:00,46.6,45.5,30.10,NNW,327,1.0,2.0,96,0.00,,---,0.37,VWS V14.01,2017-01-18 12:41:00,
2017-01-18 06:46:00,46.6,45.5,30.10,NNW,327,0.0,1.0,96,0.00,,---,0.37,VWS V14.01,2017-01-18 12:46:00,
2017-01-18 06:51:00,46.5,45.4,30.10,NNW,327,0.0,0.0,96,0.00,,---,0.37,VWS V14.01,2017-01-18 12:51:00,
2017-01-18 06:56:00,46.6,45.5,30.10,NNW,327,0.0,0.0,96,0.00,,---,0.37,VWS V14.01,2017-01-18 12:56:00,
2017-01-18 07:01:00,46.6,45.5,30.11,NNW,327,0.0,0.0,96,0.00,,---,0.37,VWS V14.01,2017-01-18 13:01:00,
2017-01-18 07:11:00,46.6,45.5,30.12,NNW,327,0.0,0.0,96,0.00,,---,0.37,VWS V14.01,2017-01-18 13:11:00,
2017-01-18 07:21:00,46.6,45.5,30.12,NNW,327,0.0,0.0,96,0.00,,---,0.37,VWS V14.01,2017-01-18 13:21:00,
2017-01-18 07:31:00,46.7,45.6,30.11,NNW,327,0.0,0.0,96,0.00,,---,0.37,VWS V14.01,2017-01-18 13:31:00,
2017-01-18 07:36:00,46.7,45.6,30.11,NW,326,0.0,5.0,96,0.00,,---,0.37,VWS V14.01,2017-01-18 13:36:00,
2017-01-18 07:41:00,46.7,45.6,30.11,NNW,328,0.0,5.0,96,0.00,,---,0.37,VWS V14.01,2017-01-18 13:41:00,
2017-01-18 07:46:00,46.6,45.5,30.12,NNW,331,0.0,5.0,96,0.00,,---,0.37,VWS V14.01,2017-01-18 13:46:00,
2017-01-18 07:51:00,46.7,45.9,30.13,NW,321,0.0,2.0,97,0.00,,---,0.37,VWS V14.01,2017-01-18 13:51:00,
2017-01-18 07:56:00,46.6,45.8,30.14,NW,321,0.0,1.0,97,0.00,,---,0.37,VWS V14.01,2017-01-18 13:56:00,
2017-01-18 08:06:00,46.6,45.8,30.15,NW,321,0.0,0.0,97,0.00,,---,0.37,VWS V14.01,2017-01-18 14:06:00,
2017-01-18 08:11:00,46.6,45.8,30.14,NW,321,0.0,0.0,97,0.00,,---,0.37,VWS V14.01,2017-01-18 14:11:00,
2017-01-18 08:16:00,46.6,45.8,30.15,NW,321,0.0,0.0,97,0.00,,---,0.37,VWS V14.01,2017-01-18 14:16:00,
2017-01-18 08:21:00,46.6,45.8,30.14,NW,321,0.0,0.0,97,0.00,,---,0.37,VWS V14.01,2017-01-18 14:21:00,
2017-01-18 08:26:00,46.6,45.8,30.13,NW,321,0.0,0.0,97,0.00,,---,0.37,VWS V14.01,2017-01-18 14:26:00,
2017-01-18 08:31:00,46.6,45.8,30.12,NW,321,0.0,0.0,97,0.00,,---,0.37,VWS V14.01,2017-01-18 14:31:00,
2017-01-18 08:36:00,46.6,45.8,30.10,NW,321,0.0,0.0,97,0.00,,---,0.37,VWS V14.01,2017-01-18 14:36:00,
2017-01-18 08:41:00,46.6,45.8,30.09,NW,321,0.0,0.0,97,0.00,,---,0.37,VWS V14.01,2017-01-18 14:41:00,
2017-01-18 08:46:00,46.6,45.8,30.10,NW,321,0.0,0.0,97,0.00,,---,0.37,VWS V14.01,2017-01-18 14:46:00,
2017-01-18 08:56:00,46.6,45.8,30.08,NW,321,0.0,0.0,97,0.00,,---,0.37,VWS V14.01,2017-01-18 14:56:00,
2017-01-18 09:01:00,46.7,45.9,30.10,East,82,0.0,0.0,97,0.00,,---,0.37,VWS V14.01,2017-01-18 15:01:00,
2017-01-18 09:06:00,46.9,46.1,30.08,East,82,0.0,1.0,97,0.00,,---,0.37,VWS V14.01,2017-01-18 15:06:00,
2017-01-18 09:11:00,46.9,46.1,30.07,East,82,0.0,0.0,97,0.01,,---,0.38,VWS V14.01,2017-01-18 15:11:00,
2017-01-18 09:16:00,46.9,46.1,30.06,ENE,71,0.0,7.0,97,0.01,,---,0.38,VWS V14.01,2017-01-18 15:16:00,
2017-01-18 09:41:00,47.2,46.4,30.08,NE,43,0.0,2.0,97,0.01,,---,0.38,VWS V14.01,2017-01-18 15:41:00,
2017-01-18 09:46:00,47.3,46.5,30.07,NE,44,0.0,4.0,97,0.01,,---,0.38,VWS V14.01,2017-01-18 15:46:00,
2017-01-18 09:51:00,47.5,46.7,30.08,NE,38,0.0,1.0,97,0.01,,---,0.38,VWS V14.01,2017-01-18 15:51:00,
2017-01-18 10:11:00,47.8,47.0,30.09,NE,38,0.0,0.0,97,0.01,,---,0.38,VWS V14.01,2017-01-18 16:11:00,
2017-01-18 10:16:00,47.9,47.4,30.11,NNE,17,0.0,1.0,98,0.00,,---,0.38,VWS V14.01,2017-01-18 16:16:00,
2017-01-18 10:21:00,48.0,47.2,30.13,WSW,257,0.0,6.0,97,0.00,,---,0.38,VWS V14.01,2017-01-18 16:21:00,
2017-01-18 10:26:00,48.1,47.3,30.12,WSW,257,0.0,4.0,97,0.00,,---,0.38,VWS V14.01,2017-01-18 16:26:00,
2017-01-18 10:31:00,48.1,47.3,30.11,WSW,257,0.0,0.0,97,0.00,,---,0.38,VWS V14.01,2017-01-18 16:31:00,
2017-01-18 10:36:00,48.1,47.3,30.10,WSW,257,0.0,0.0,97,0.00,,---,0.38,VWS V14.01,2017-01-18 16:36:00,
2017-01-18 10:41:00,48.1,47.3,30.08,WSW,257,0.0,0.0,97,0.00,,---,0.38,VWS V14.01,2017-01-18 16:41:00,
2017-01-18 10:46:00,48.1,47.3,30.08,WSW,257,0.0,1.0,97,0.00,,---,0.38,VWS V14.01,2017-01-18 16:46:00,
2017-01-18 10:51:00,48.2,47.4,30.08,WSW,257,0.0,0.0,97,0.00,,---,0.38,VWS V14.01,2017-01-18 16:51:00,
2017-01-18 10:56:00,48.2,47.4,30.08,WSW,257,0.0,0.0,97,0.00,,---,0.38,VWS V14.01,2017-01-18 16:56:00,
2017-01-18 11:01:00,48.3,47.5,30.07,WSW,255,0.0,0.0,97,0.00,,---,0.38,VWS V14.01,2017-01-18 17:01:00,
2017-01-18 11:06:00,48.3,47.5,30.07,NW,306,1.0,2.0,97,0.00,,---,0.38,VWS V14.01,2017-01-18 17:06:00,
2017-01-18 11:11:00,48.4,47.6,30.07,NW,306,0.0,1.0,97,0.00,,---,0.38,VWS V14.01,2017-01-18 17:11:00,
2017-01-18 11:16:00,48.5,47.7,30.08,North,355,0.0,2.0,97,0.00,,---,0.38,VWS V14.01,2017-01-18 17:16:00,
2017-01-18 11:21:00,48.4,47.6,30.09,WNW,298,0.0,7.0,97,0.00,,---,0.38,VWS V14.01,2017-01-18 17:21:00,
2017-01-18 11:26:00,48.5,47.7,30.09,WNW,298,0.0,2.0,97,0.00,,---,0.38,VWS V14.01,2017-01-18 17:26:00,
2017-01-18 11:31:00,48.5,47.7,30.09,West,270,0.0,5.0,97,0.00,,---,0.38,VWS V14.01,2017-01-18 17:31:00,
2017-01-18 11:36:00,48.3,47.5,30.10,WNW,288,0.0,7.0,97,0.00,,---,0.38,VWS V14.01,2017-01-18 17:36:00,
2017-01-18 11:41:00,48.1,47.3,30.09,NW,323,0.0,5.0,97,0.00,,---,0.38,VWS V14.01,2017-01-18 17:41:00,
2017-01-18 11:46:00,47.9,46.8,30.09,West,268,4.0,7.0,96,0.00,,---,0.38,VWS V14.01,2017-01-18 17:46:00,
2017-01-18 11:51:00,47.8,46.7,30.09,WNW,301,2.0,6.0,96,0.00,,---,0.38,VWS V14.01,2017-01-18 17:51:00,
2017-01-18 11:56:00,47.8,47.0,30.08,North,355,0.0,2.0,97,0.00,,---,0.38,VWS V14.01,2017-01-18 17:56:00,
2017-01-18 12:01:00,47.7,46.6,30.07,North,355,0.0,6.0,96,0.00,,---,0.38,VWS V14.01,2017-01-18 18:01:00,
2017-01-18 12:06:00,47.8,47.0,30.07,NNW,333,0.0,1.0,97,0.00,,---,0.38,VWS V14.01,2017-01-18 18:06:00,
2017-01-18 12:11:00,47.8,47.0,30.07,NNW,333,0.0,7.0,97,0.00,,---,0.38,VWS V14.01,2017-01-18 18:11:00,
2017-01-18 12:16:00,47.9,47.1,30.07,NW,320,4.0,8.0,97,0.00,,---,0.38,VWS V14.01,2017-01-18 18:16:00,
2017-01-18 12:21:00,47.9,46.8,30.07,NW,318,0.0,7.0,96,0.00,,---,0.38,VWS V14.01,2017-01-18 18:21:00,
2017-01-18 12:26:00,48.1,47.3,30.06,NNW,329,0.0,5.0,97,0.00,,---,0.38,VWS V14.01,2017-01-18 18:26:00,
2017-01-18 12:31:00,48.2,47.4,30.06,NNW,331,0.0,5.0,97,0.00,,---,0.38,VWS V14.01,2017-01-18 18:31:00,
2017-01-18 12:36:00,48.2,47.4,30.06,NW,316,0.0,4.0,97,0.00,,---,0.38,VWS V14.01,2017-01-18 18:36:00,
2017-01-18 12:46:00,48.3,47.5,30.06,WNW,287,0.0,5.0,97,0.00,,---,0.38,VWS V14.01,2017-01-18 18:46:00,
2017-01-18 12:51:00,48.2,47.1,30.06,WNW,298,0.0,6.0,96,0.00,,---,0.38,VWS V14.01,2017-01-18 18:51:00,
2017-01-18 12:56:00,48.1,47.0,30.05,WNW,294,0.0,5.0,96,0.00,,---,0.38,VWS V14.01,2017-01-18 18:56:00,
2017-01-18 13:01:00,48.1,47.0,30.04,NW,308,0.0,4.0,96,0.00,,---,0.38,VWS V14.01,2017-01-18 19:01:00,
2017-01-18 13:06:00,48.2,47.1,30.04,NW,317,0.0,7.0,96,0.00,,---,0.38,VWS V14.01,2017-01-18 19:06:00,
2017-01-18 13:11:00,48.3,47.2,30.03,NNW,337,0.0,4.0,96,0.00,,---,0.38,VWS V14.01,2017-01-18 19:11:00,
2017-01-18 13:16:00,48.4,47.3,30.03,West,278,0.0,6.0,96,0.00,,---,0.38,VWS V14.01,2017-01-18 19:16:00,
2017-01-18 13:21:00,48.5,47.4,30.03,WNW,282,0.0,7.0,96,0.00,,---,0.38,VWS V14.01,2017-01-18 19:21:00,
2017-01-18 13:26:00,48.6,47.5,30.03,WNW,282,0.0,1.0,96,0.00,,---,0.38,VWS V14.01,2017-01-18 19:26:00,
2017-01-18 13:31:00,48.7,47.6,30.03,NW,304,0.0,5.0,96,0.00,,---,0.38,VWS V14.01,2017-01-18 19:31:00,
2017-01-18 13:36:00,48.8,47.7,30.03,WNW,290,0.0,5.0,96,0.00,,---,0.38,VWS V14.01,2017-01-18 19:36:00,
2017-01-18 13:41:00,48.8,47.7,30.03,WNW,290,0.0,5.0,96,0.00,,---,0.38,VWS V14.01,2017-01-18 19:41:00,
2017-01-18 13:46:00,48.9,47.5,30.03,WNW,293,0.0,4.0,95,0.00,,---,0.38,VWS V14.01,2017-01-18 19:46:00,
2017-01-18 13:51:00,49.0,47.9,30.02,WNW,294,0.0,1.0,96,0.00,,---,0.38,VWS V14.01,2017-01-18 19:51:00,
2017-01-18 13:56:00,49.1,47.7,30.02,NNW,334,0.0,5.0,95,0.00,,---,0.38,VWS V14.01,2017-01-18 19:56:00,
2017-01-18 14:01:00,49.1,47.7,30.02,NNW,331,0.0,0.0,95,0.00,,---,0.38,VWS V14.01,2017-01-18 20:01:00,
2017-01-18 14:06:00,49.2,47.8,30.02,NW,308,4.0,4.0,95,0.00,,---,0.38,VWS V14.01,2017-01-18 20:06:00,
2017-01-18 14:11:00,49.3,47.9,30.02,WNW,290,0.0,5.0,95,0.00,,---,0.38,VWS V14.01,2017-01-18 20:11:00,
2017-01-18 14:16:00,49.4,48.0,30.02,WNW,299,0.0,2.0,95,0.00,,---,0.38,VWS V14.01,2017-01-18 20:16:00,
2017-01-18 14:21:00,49.5,48.1,30.02,WNW,299,0.0,5.0,95,0.00,,---,0.38,VWS V14.01,2017-01-18 20:21:00,
2017-01-18 14:26:00,49.6,48.2,30.02,NW,306,0.0,5.0,95,0.00,,---,0.38,VWS V14.01,2017-01-18 20:26:00,
2017-01-18 14:31:00,49.6,48.2,30.02,NW,318,0.0,4.0,95,0.00,,---,0.38,VWS V14.01,2017-01-18 20:31:00,
2017-01-18 14:36:00,49.8,48.4,30.02,NW,322,0.0,2.0,95,0.00,,---,0.38,VWS V14.01,2017-01-18 20:36:00,
2017-01-18 14:41:00,49.9,48.5,30.02,NNW,331,0.0,1.0,95,0.00,,---,0.38,VWS V14.01,2017-01-18 20:41:00,
2017-01-18 14:46:00,50.0,48.6,30.02,WNW,290,2.0,5.0,95,0.00,,---,0.38,VWS V14.01,2017-01-18 20:46:00,
2017-01-18 14:51:00,50.1,48.4,30.02,WNW,292,0.0,4.0,94,0.00,,---,0.38,VWS V14.01,2017-01-18 20:51:00,
2017-01-18 14:56:00,50.3,48.6,30.03,NW,322,0.0,1.0,94,0.00,,---,0.38,VWS V14.01,2017-01-18 20:56:00,